createdAt,value
2018-01-19T00:01:03.951Z,3.57
2018-01-19T00:03:30.649Z,3.37
2018-01-19T00:05:58.000Z,3.57
2018-01-19T00:08:24.752Z,3.23
2018-01-19T00:10:51.471Z,3.17
2018-01-19T00:13:18.202Z,3.03
2018-01-19T00:15:44.899Z,3.40
2018-01-19T00:18:11.636Z,3.50
2018-01-19T00:20:38.432Z,3.17
2018-01-19T00:23:05.159Z,2.90
2018-01-19T00:25:32.074Z,3.50
2018-01-19T00:27:58.794Z,3.10
2018-01-19T00:30:25.741Z,3.43
2018-01-19T00:32:52.521Z,3.03
2018-01-19T00:35:19.257Z,3.43
2018-01-19T00:37:45.972Z,3.17
2018-01-19T00:40:12.643Z,2.93
2018-01-19T00:42:39.412Z,3.23
2018-01-19T00:45:06.091Z,3.70
2018-01-19T00:47:32.792Z,3.90
2018-01-19T00:49:59.531Z,3.23
2018-01-19T00:52:26.233Z,4.70
2018-01-19T00:54:53.906Z,3.33
2018-01-19T00:57:20.638Z,3.50
2018-01-19T00:59:47.305Z,3.10
2018-01-19T01:02:14.040Z,3.60
2018-01-19T01:04:40.761Z,2.07
2018-01-19T01:07:07.453Z,1.90
2018-01-19T01:09:34.192Z,1.97
2018-01-19T01:12:00.903Z,1.80
2018-01-19T01:14:27.649Z,1.70
2018-01-19T01:16:54.332Z,1.70
2018-01-19T01:19:21.324Z,1.37
2018-01-19T01:21:48.209Z,1.47
2018-01-19T01:24:14.989Z,1.43
2018-01-19T01:26:41.764Z,1.37
2018-01-19T01:29:08.491Z,1.40
2018-01-19T01:31:35.199Z,1.30
2018-01-19T01:34:02.817Z,1.40
2018-01-19T01:36:29.523Z,1.13
2018-01-19T01:38:56.264Z,1.33
2018-01-19T01:41:22.936Z,1.60
2018-01-19T01:43:49.656Z,1.37
2018-01-19T01:46:16.336Z,1.63
2018-01-19T01:48:43.053Z,1.53
2018-01-19T01:51:09.732Z,1.33
2018-01-19T01:53:36.456Z,1.53
2018-01-19T01:56:03.139Z,1.73
2018-01-19T01:58:29.880Z,1.63
2018-01-19T02:00:56.600Z,1.93
2018-01-19T02:03:23.296Z,1.50
2018-01-19T02:05:50.021Z,1.90
2018-01-19T02:08:16.700Z,1.73
2018-01-19T02:10:43.611Z,2.27
2018-01-19T02:13:10.307Z,2.20
2018-01-19T02:15:37.016Z,1.50
2018-01-19T02:18:03.717Z,1.80
2018-01-19T02:20:30.393Z,1.67
2018-01-19T02:22:57.138Z,1.90
2018-01-19T02:25:23.904Z,1.57
2018-01-19T02:27:50.619Z,1.60
2018-01-19T02:30:17.338Z,1.73
2018-01-19T02:32:44.075Z,1.70
2018-01-19T02:35:10.754Z,1.70
2018-01-19T02:37:37.451Z,1.97
2018-01-19T02:40:04.193Z,1.97
2018-01-19T02:42:30.890Z,2.13
2018-01-19T02:44:57.622Z,1.87
2018-01-19T02:47:24.293Z,2.13
2018-01-19T02:49:51.025Z,2.07
2018-01-19T02:52:17.727Z,2.03
2018-01-19T02:54:44.459Z,1.93
2018-01-19T02:57:11.139Z,1.80
2018-01-19T02:59:37.853Z,1.93
2018-01-19T03:02:04.583Z,1.67
2018-01-19T03:04:31.284Z,1.70
2018-01-19T03:06:57.975Z,1.23
2018-01-19T03:09:24.736Z,2.40
2018-01-19T03:11:51.445Z,2.00
2018-01-19T03:14:18.137Z,1.73
2018-01-19T03:16:44.832Z,1.53
2018-01-19T03:19:11.532Z,1.80
2018-01-19T03:21:39.165Z,1.70
2018-01-19T03:24:05.874Z,1.60
2018-01-19T03:26:32.575Z,2.20
2018-01-19T03:28:59.251Z,1.57
2018-01-19T03:31:25.977Z,1.70
2018-01-19T03:33:53.609Z,1.60
2018-01-19T03:36:20.778Z,1.40
2018-01-19T03:38:47.507Z,1.60
2018-01-19T03:41:14.231Z,1.27
2018-01-19T03:43:40.962Z,1.33
2018-01-19T03:46:07.673Z,1.10
2018-01-19T03:48:34.416Z,1.50
2018-01-19T03:51:01.196Z,1.50
2018-01-19T03:53:27.894Z,1.57
2018-01-19T03:55:54.593Z,1.33
2018-01-19T03:58:21.306Z,1.17
2018-01-19T04:00:48.012Z,0.87
2018-01-19T04:03:14.718Z,1.10
2018-01-19T04:05:41.425Z,1.60
2018-01-19T04:08:08.130Z,1.00
2018-01-19T04:10:34.854Z,1.33
2018-01-19T04:13:01.622Z,1.67
2018-01-19T04:15:28.361Z,1.20
2018-01-19T04:17:55.085Z,1.20
2018-01-19T04:20:21.794Z,1.10
2018-01-19T04:22:48.481Z,1.17
2018-01-19T04:25:15.188Z,1.37
2018-01-19T04:27:41.893Z,1.40
2018-01-19T04:30:08.569Z,1.40
2018-01-19T04:32:35.275Z,1.40
2018-01-19T04:35:01.958Z,1.23
2018-01-19T04:37:28.647Z,1.30
2018-01-19T04:39:55.362Z,2.30
2018-01-19T04:42:22.023Z,1.70
2018-01-19T04:44:48.739Z,1.30
2018-01-19T04:47:15.481Z,1.27
2018-01-19T04:49:42.156Z,1.53
2018-01-19T04:52:08.858Z,1.60
2018-01-19T04:54:35.660Z,1.17
2018-01-19T04:57:02.365Z,1.33
2018-01-19T04:59:29.042Z,1.83
2018-01-19T05:01:55.802Z,1.83
2018-01-19T05:04:22.508Z,1.27
2018-01-19T05:06:49.231Z,1.03
2018-01-19T05:09:15.924Z,1.27
2018-01-19T05:11:42.621Z,1.07
2018-01-19T05:14:09.335Z,1.30
2018-01-19T05:16:36.035Z,0.90
2018-01-19T05:19:02.754Z,1.30
2018-01-19T05:21:29.429Z,1.00
2018-01-19T05:23:56.146Z,1.20
2018-01-19T05:26:22.902Z,1.60
2018-01-19T05:28:49.629Z,1.50
2018-01-19T05:31:16.339Z,1.17
2018-01-19T05:33:43.057Z,1.47
2018-01-19T05:36:09.739Z,1.20
2018-01-19T05:38:42.819Z,1.03
2018-01-19T05:41:09.667Z,1.40
2018-01-19T05:43:43.618Z,1.57
2018-01-19T05:46:10.382Z,1.60
2018-01-19T05:48:37.148Z,1.50
2018-01-19T05:51:03.882Z,1.87
2018-01-19T05:53:30.606Z,2.00
2018-01-19T05:55:58.018Z,1.90
2018-01-19T05:58:24.869Z,1.73
2018-01-19T06:00:51.644Z,1.90
2018-01-19T06:03:18.343Z,1.47
2018-01-19T06:05:45.130Z,2.40
2018-01-19T06:08:11.924Z,1.80
2018-01-19T06:10:38.789Z,2.43
2018-01-19T06:13:05.530Z,1.47
2018-01-19T06:15:32.284Z,1.60
2018-01-19T06:17:59.011Z,1.50
2018-01-19T06:20:26.004Z,1.63
2018-01-19T06:22:52.721Z,1.63
2018-01-19T06:25:19.484Z,1.50
2018-01-19T06:27:46.178Z,1.80
2018-01-19T06:30:12.886Z,2.03
2018-01-19T06:32:39.558Z,2.50
2018-01-19T06:35:06.262Z,2.40
2018-01-19T06:37:32.985Z,1.40
2018-01-19T06:39:59.694Z,2.40
2018-01-19T06:42:26.415Z,1.70
2018-01-19T06:44:53.129Z,1.87
2018-01-19T06:47:19.845Z,1.77
2018-01-19T06:49:46.604Z,1.93
2018-01-19T06:52:13.373Z,1.80
2018-01-19T06:54:40.187Z,1.97
2018-01-19T06:57:06.938Z,1.40
2018-01-19T06:59:33.651Z,1.67
2018-01-19T07:02:00.399Z,1.73
2018-01-19T07:04:27.214Z,1.60
2018-01-19T07:06:53.942Z,1.77
2018-01-19T07:09:20.895Z,1.87
2018-01-19T07:11:47.623Z,2.10
2018-01-19T07:14:14.372Z,1.80
2018-01-19T07:16:41.126Z,1.63
2018-01-19T07:19:07.869Z,1.37
2018-01-19T07:21:34.585Z,2.27
2018-01-19T07:24:01.305Z,1.80
2018-01-19T07:26:28.079Z,2.20
2018-01-19T07:28:54.762Z,1.97
2018-01-19T07:31:21.507Z,2.10
2018-01-19T07:33:48.198Z,1.87
2018-01-19T07:36:14.949Z,1.60
2018-01-19T07:38:42.565Z,1.73
2018-01-19T07:41:09.233Z,2.00
2018-01-19T07:43:35.958Z,1.60
2018-01-19T07:46:02.697Z,1.60
2018-01-19T07:48:29.769Z,1.80
2018-01-19T07:50:56.445Z,2.17
2018-01-19T07:53:23.115Z,1.90
2018-01-19T07:55:49.882Z,2.23
2018-01-19T07:58:16.552Z,2.40
2018-01-19T08:00:43.309Z,1.80
2018-01-19T08:03:10.121Z,1.93
2018-01-19T08:05:36.814Z,1.57
2018-01-19T08:08:03.514Z,1.70
2018-01-19T08:10:30.228Z,1.70
2018-01-19T08:12:57.079Z,2.30
2018-01-19T08:15:23.829Z,1.77
2018-01-19T08:17:50.537Z,1.57
2018-01-19T08:20:17.305Z,2.13
2018-01-19T08:22:44.014Z,1.87
2018-01-19T08:25:10.714Z,1.80
2018-01-19T08:27:37.450Z,1.87
2018-01-19T08:30:04.133Z,2.50
2018-01-19T08:32:30.845Z,1.90
2018-01-19T08:34:57.540Z,1.73
2018-01-19T08:37:24.252Z,2.23
2018-01-19T08:39:50.953Z,2.03
2018-01-19T08:42:17.630Z,1.70
2018-01-19T08:44:44.336Z,2.10
2018-01-19T08:47:11.028Z,2.07
2018-01-19T08:49:37.746Z,1.80
2018-01-19T08:52:05.008Z,2.13
2018-01-19T08:54:31.676Z,2.20
2018-01-19T08:56:58.344Z,1.67
2018-01-19T08:59:25.046Z,2.50
2018-01-19T09:01:51.722Z,1.80
2018-01-19T09:04:18.465Z,2.00
2018-01-19T09:06:45.185Z,2.30
2018-01-19T09:09:11.915Z,1.83
2018-01-19T09:11:38.601Z,2.00
2018-01-19T09:14:05.289Z,1.80
2018-01-19T09:16:31.992Z,2.50
2018-01-19T09:18:58.669Z,1.93
2018-01-19T09:21:25.393Z,1.93
2018-01-19T09:23:52.140Z,2.30
2018-01-19T09:26:18.882Z,1.97
2018-01-19T09:28:45.595Z,2.20
2018-01-19T09:31:12.377Z,2.60
2018-01-19T09:33:39.966Z,1.90
2018-01-19T09:36:06.715Z,1.70
2018-01-19T09:38:33.429Z,1.90
2018-01-19T09:41:00.109Z,2.67
2018-01-19T09:43:26.845Z,2.50
2018-01-19T09:45:53.576Z,2.13
2018-01-19T09:48:20.372Z,2.20
2018-01-19T09:50:47.066Z,2.47
2018-01-19T09:53:13.769Z,1.77
2018-01-19T09:55:40.482Z,2.23
2018-01-19T09:58:07.243Z,1.53
2018-01-19T10:00:33.982Z,1.93
2018-01-19T10:03:00.709Z,2.30
2018-01-19T10:05:27.405Z,1.80
2018-01-19T10:07:54.143Z,2.07
2018-01-19T10:10:20.818Z,1.90
2018-01-19T10:12:47.550Z,2.27
2018-01-19T10:15:14.283Z,2.30
2018-01-19T10:17:40.970Z,1.70
2018-01-19T10:20:07.652Z,1.83
2018-01-19T10:22:34.374Z,1.70
2018-01-19T10:25:01.083Z,2.00
2018-01-19T10:27:27.806Z,2.30
2018-01-19T10:29:54.556Z,1.80
2018-01-19T10:32:21.265Z,2.00
2018-01-19T10:34:47.947Z,1.93
2018-01-19T10:37:14.634Z,2.00
2018-01-19T10:39:41.372Z,1.93
2018-01-19T10:42:09.096Z,1.70
2018-01-19T10:44:35.781Z,1.87
2018-01-19T10:47:02.469Z,1.57
2018-01-19T10:49:29.191Z,2.07
2018-01-19T10:51:55.900Z,2.03
2018-01-19T10:54:22.665Z,2.00
2018-01-19T10:56:49.358Z,1.77
2018-01-19T10:59:16.069Z,2.30
2018-01-19T11:01:42.775Z,1.93
2018-01-19T11:04:09.445Z,2.13
2018-01-19T11:06:36.167Z,2.30
2018-01-19T11:09:03.438Z,2.77
2018-01-19T11:11:30.149Z,3.00
2018-01-19T11:13:56.879Z,2.50
2018-01-19T11:16:23.579Z,2.73
2018-01-19T11:18:50.344Z,1.90
2018-01-19T11:21:17.040Z,2.00
2018-01-19T11:23:43.751Z,2.50
2018-01-19T11:26:10.453Z,2.30
2018-01-19T11:28:37.214Z,1.83
2018-01-19T11:31:04.053Z,2.23
2018-01-19T11:33:30.741Z,2.50
2018-01-19T11:35:57.446Z,2.23
2018-01-19T11:38:24.225Z,2.40
2018-01-19T11:40:50.935Z,1.70
2018-01-19T11:43:17.681Z,1.80
2018-01-19T11:45:44.388Z,2.43
2018-01-19T11:48:11.088Z,2.30
2018-01-19T11:50:37.824Z,1.80
2018-01-19T11:53:04.502Z,1.83
2018-01-19T11:55:31.224Z,1.90
2018-01-19T11:57:57.905Z,2.00
2018-01-19T12:00:24.711Z,1.90
2018-01-19T12:02:51.405Z,2.57
2018-01-19T12:05:18.072Z,1.80
2018-01-19T12:07:44.818Z,2.60
2018-01-19T12:10:11.547Z,2.27
2018-01-19T12:12:38.338Z,1.83
2018-01-19T12:15:05.029Z,2.53
2018-01-19T12:17:31.731Z,2.20
2018-01-19T12:19:58.460Z,2.23
2018-01-19T12:22:25.156Z,2.60
2018-01-19T12:24:51.838Z,2.10
2018-01-19T12:27:18.531Z,2.50
2018-01-19T12:29:45.234Z,2.50
2018-01-19T12:32:11.931Z,1.90
2018-01-19T12:34:38.627Z,1.90
2018-01-19T12:37:05.367Z,2.40
2018-01-19T12:39:32.107Z,2.20
2018-01-19T12:41:58.987Z,2.37
2018-01-19T12:44:25.677Z,2.10
2018-01-19T12:46:52.392Z,2.10
2018-01-19T12:49:19.141Z,2.07
2018-01-19T12:51:45.818Z,2.27
2018-01-19T12:54:12.563Z,1.67
2018-01-19T12:56:39.257Z,2.13
2018-01-19T12:59:05.928Z,2.00
2018-01-19T13:01:32.613Z,1.90
2018-01-19T13:03:59.345Z,2.03
2018-01-19T13:06:26.053Z,2.23
2018-01-19T13:08:52.751Z,2.37
2018-01-19T13:11:19.498Z,2.10
2018-01-19T13:13:46.173Z,1.90
2018-01-19T13:16:12.861Z,3.17
2018-01-19T13:18:39.576Z,2.00
2018-01-19T13:21:06.313Z,2.80
2018-01-19T13:23:33.018Z,2.30
2018-01-19T13:25:59.865Z,2.10
2018-01-19T13:28:26.602Z,1.73
2018-01-19T13:30:53.354Z,2.97
2018-01-19T13:33:20.057Z,1.43
2018-01-19T13:35:46.747Z,1.93
2018-01-19T13:38:13.458Z,2.13
2018-01-19T13:40:40.211Z,1.60
2018-01-19T13:43:07.662Z,2.00
2018-01-19T13:45:34.390Z,1.83
2018-01-19T13:48:01.279Z,2.10
2018-01-19T13:50:28.062Z,1.70
2018-01-19T13:52:54.757Z,2.20
2018-01-19T13:55:21.456Z,2.13
2018-01-19T13:57:48.132Z,1.93
2018-01-19T14:00:14.857Z,2.00
2018-01-19T14:02:41.536Z,2.10
2018-01-19T14:05:08.270Z,1.50
2018-01-19T14:07:34.975Z,1.97
2018-01-19T14:10:01.683Z,1.90
2018-01-19T14:12:28.410Z,1.30
2018-01-19T14:14:55.153Z,2.13
2018-01-19T14:17:21.835Z,2.23
2018-01-19T14:19:48.550Z,2.10
2018-01-19T14:22:15.932Z,2.00
2018-01-19T14:24:42.775Z,2.13
2018-01-19T14:27:09.484Z,1.90
2018-01-19T14:29:36.292Z,2.13
2018-01-19T14:32:03.066Z,2.03
2018-01-19T14:34:29.780Z,2.07
2018-01-19T14:36:56.542Z,2.10
2018-01-19T14:39:23.302Z,1.80
2018-01-19T14:41:50.089Z,1.80
2018-01-19T14:44:17.819Z,1.93
2018-01-19T14:46:44.530Z,1.70
2018-01-19T14:49:11.287Z,1.90
2018-01-19T14:51:38.041Z,1.67
2018-01-19T14:54:04.742Z,2.27
2018-01-19T14:56:31.470Z,2.43
2018-01-19T14:58:58.186Z,2.00
2018-01-19T15:01:24.948Z,1.93
2018-01-19T15:03:51.688Z,1.73
2018-01-19T15:06:18.454Z,1.70
2018-01-19T15:08:45.177Z,2.03
2018-01-19T15:11:11.973Z,1.70
2018-01-19T15:13:38.654Z,1.97
2018-01-19T15:16:05.376Z,2.10
2018-01-19T15:18:32.129Z,1.57
2018-01-19T15:20:58.850Z,2.17
2018-01-19T15:23:25.599Z,2.43
2018-01-19T15:25:52.341Z,2.23
2018-01-19T15:28:19.040Z,2.37
2018-01-19T15:30:45.765Z,1.80
2018-01-19T15:33:12.484Z,2.40
2018-01-19T15:35:39.178Z,1.90
2018-01-19T15:38:05.988Z,3.20
2018-01-19T15:40:32.684Z,3.70
2018-01-19T15:42:59.376Z,3.00
2018-01-19T15:45:26.230Z,3.40
2018-01-19T15:47:52.916Z,2.90
2018-01-19T15:50:19.647Z,2.73
2018-01-19T15:52:46.378Z,2.30
2018-01-19T15:55:13.141Z,2.50
2018-01-19T15:57:39.848Z,3.03
2018-01-19T16:00:06.615Z,2.90
2018-01-19T16:02:33.357Z,2.20
2018-01-19T16:05:00.055Z,2.53
2018-01-19T16:07:26.766Z,3.50
2018-01-19T16:09:53.501Z,2.57
2018-01-19T16:12:20.219Z,2.67
2018-01-19T16:14:46.963Z,2.63
2018-01-19T16:17:13.645Z,3.23
2018-01-19T16:19:40.326Z,3.33
2018-01-19T16:22:07.035Z,3.10
2018-01-19T16:24:33.743Z,3.40
2018-01-19T16:27:00.443Z,3.23
2018-01-19T16:29:27.384Z,3.33
2018-01-19T16:31:54.127Z,2.60
2018-01-19T16:34:20.826Z,3.67
2018-01-19T16:36:47.513Z,2.80
2018-01-19T16:39:14.284Z,3.03
2018-01-19T16:41:41.057Z,3.13
2018-01-19T16:44:07.838Z,3.67
2018-01-19T16:46:34.550Z,4.23
2018-01-19T16:49:01.353Z,3.50
2018-01-19T16:51:28.094Z,3.07
2018-01-19T16:53:56.162Z,3.77
2018-01-19T16:56:22.863Z,3.00
2018-01-19T16:58:49.587Z,3.33
2018-01-19T17:01:16.330Z,2.60
2018-01-19T17:03:43.012Z,2.77
2018-01-19T17:06:09.689Z,3.47
2018-01-19T17:08:36.395Z,2.90
2018-01-19T17:11:03.108Z,2.90
2018-01-19T17:13:29.917Z,2.77
2018-01-19T17:15:56.601Z,2.90
2018-01-19T17:18:23.284Z,3.57
2018-01-19T17:20:49.993Z,2.90
2018-01-19T17:23:16.664Z,2.70
2018-01-19T17:25:43.377Z,3.23
2018-01-19T17:28:10.086Z,3.33
2018-01-19T17:30:36.807Z,3.60
2018-01-19T17:33:03.558Z,4.00
2018-01-19T17:35:30.800Z,3.33
2018-01-19T17:37:57.562Z,3.40
2018-01-19T17:40:24.328Z,3.83
2018-01-19T17:42:51.246Z,3.63
2018-01-19T17:45:18.298Z,3.40
2018-01-19T17:47:45.032Z,3.47
2018-01-19T17:50:11.726Z,3.80
2018-01-19T17:52:38.448Z,3.30
2018-01-19T17:55:05.170Z,3.60
2018-01-19T17:57:31.883Z,3.53
2018-01-19T17:59:58.620Z,3.70
2018-01-19T18:02:25.405Z,4.10
2018-01-19T18:04:52.098Z,3.57
2018-01-19T18:07:18.884Z,3.40
2018-01-19T18:09:45.601Z,3.90
2018-01-19T18:12:12.329Z,3.50
2018-01-19T18:14:39.055Z,3.40
2018-01-19T18:17:05.769Z,3.50
2018-01-19T18:19:32.480Z,3.47
2018-01-19T18:21:59.195Z,2.40
2018-01-19T18:24:25.976Z,3.20
2018-01-19T18:26:52.679Z,2.77
2018-01-19T18:29:19.625Z,3.00
2018-01-19T18:31:46.366Z,2.70
2018-01-19T18:34:13.056Z,2.50
2018-01-19T18:36:39.805Z,2.10
2018-01-19T18:39:06.543Z,2.20
2018-01-19T18:41:33.258Z,2.30
2018-01-19T18:43:59.991Z,2.17
2018-01-19T18:46:26.729Z,2.40
2018-01-19T18:48:53.403Z,2.33
2018-01-19T18:51:20.079Z,2.67
2018-01-19T18:53:46.784Z,1.90
2018-01-19T18:56:13.483Z,2.90
2018-01-19T18:58:47.546Z,2.37
2018-01-19T19:01:14.308Z,2.23
2018-01-19T19:03:41.017Z,2.90
2018-01-19T19:06:07.758Z,2.63
2018-01-19T19:08:34.499Z,2.80
2018-01-19T19:11:01.242Z,2.73
2018-01-19T19:13:27.982Z,3.37
2018-01-19T19:15:54.695Z,2.60
2018-01-19T19:18:21.431Z,2.37
2018-01-19T19:20:48.177Z,2.93
2018-01-19T19:23:14.914Z,3.10
2018-01-19T19:25:42.557Z,2.70
2018-01-19T19:28:09.335Z,2.90
2018-01-19T19:30:36.020Z,3.30
2018-01-19T19:33:02.757Z,3.30
2018-01-19T19:35:29.562Z,2.97
2018-01-19T19:37:56.282Z,3.33
2018-01-19T19:40:23.031Z,2.80
2018-01-19T19:42:49.800Z,3.10
2018-01-19T19:45:16.488Z,2.80
2018-01-19T19:47:43.255Z,2.80
2018-01-19T19:50:09.958Z,3.23
2018-01-19T19:52:36.747Z,2.90
2018-01-19T19:55:03.491Z,3.07
2018-01-19T19:57:30.189Z,3.00
2018-01-19T19:59:56.934Z,3.53
2018-01-19T20:02:23.668Z,3.03
2018-01-19T20:04:50.468Z,2.37
2018-01-19T20:07:17.184Z,3.00
2018-01-19T20:09:43.871Z,3.93
2018-01-19T20:12:10.601Z,4.17
2018-01-19T20:14:37.275Z,4.80
2018-01-19T20:17:04.017Z,4.37
2018-01-19T20:19:30.727Z,4.80
2018-01-19T20:21:57.442Z,4.60
2018-01-19T20:24:24.359Z,5.03
2018-01-19T20:26:51.183Z,5.67
2018-01-19T20:29:17.927Z,5.87
2018-01-19T20:31:44.644Z,5.20
2018-01-19T20:34:11.372Z,5.70
2018-01-19T20:36:38.092Z,5.67
2018-01-19T20:39:04.794Z,5.10
2018-01-19T20:41:31.669Z,5.60
2018-01-19T20:43:58.405Z,5.77
2018-01-19T20:46:25.219Z,6.13
2018-01-19T20:48:52.056Z,6.40
2018-01-19T20:51:18.769Z,6.07
2018-01-19T20:53:45.448Z,6.17
2018-01-19T20:56:12.134Z,6.00
2018-01-19T20:58:38.841Z,6.00
2018-01-19T21:01:05.543Z,5.70
2018-01-19T21:03:32.244Z,5.30
2018-01-19T21:05:59.387Z,5.80
2018-01-19T21:08:26.092Z,5.30
2018-01-19T21:10:52.883Z,5.83
2018-01-19T21:13:19.610Z,6.73
2018-01-19T21:15:46.312Z,6.80
2018-01-19T21:18:13.077Z,5.53
2018-01-19T21:20:39.777Z,6.10
2018-01-19T21:23:06.508Z,5.97
2018-01-19T21:25:33.309Z,6.20
2018-01-19T21:28:00.005Z,6.13
2018-01-19T21:30:26.711Z,6.33
2018-01-19T21:32:53.644Z,6.97
2018-01-19T21:35:20.420Z,7.23
2018-01-19T21:37:47.240Z,6.53
2018-01-19T21:40:17.133Z,6.63
2018-01-19T21:42:43.817Z,6.27
2018-01-19T21:45:10.525Z,6.63
2018-01-19T21:47:37.230Z,6.33
2018-01-19T21:50:03.909Z,6.53
2018-01-19T21:52:30.633Z,6.00
2018-01-19T21:54:57.468Z,6.87
2018-01-19T21:57:24.159Z,6.77
2018-01-19T21:59:51.231Z,6.13
2018-01-19T22:02:17.953Z,6.20
2018-01-19T22:04:44.697Z,6.17
2018-01-19T22:07:11.388Z,6.23
2018-01-19T22:09:38.065Z,6.20
2018-01-19T22:12:04.779Z,6.60
2018-01-19T22:14:31.511Z,6.03
2018-01-19T22:16:58.227Z,6.93
2018-01-19T22:19:24.980Z,6.90
2018-01-19T22:21:51.697Z,6.70
2018-01-19T22:24:18.433Z,7.00
2018-01-19T22:26:45.159Z,6.00
2018-01-19T22:29:11.906Z,6.47
2018-01-19T22:31:38.611Z,6.67
2018-01-19T22:34:05.347Z,6.40
2018-01-19T22:36:32.117Z,6.83
2018-01-19T22:38:58.861Z,5.93
2018-01-19T22:41:25.575Z,6.50
2018-01-19T22:43:52.292Z,6.23
2018-01-19T22:46:18.998Z,5.57
2018-01-19T22:48:45.668Z,6.17
2018-01-19T22:51:12.399Z,5.97
2018-01-19T22:53:39.090Z,6.00
2018-01-19T22:56:05.808Z,5.53
2018-01-19T22:58:32.510Z,5.60
2018-01-19T23:00:59.253Z,6.87
2018-01-19T23:03:25.941Z,5.70
2018-01-19T23:05:52.948Z,6.70
2018-01-19T23:08:19.693Z,6.03
2018-01-19T23:10:46.424Z,6.07
2018-01-19T23:13:13.188Z,6.00
2018-01-19T23:15:39.867Z,6.23
2018-01-19T23:18:06.559Z,5.60
2018-01-19T23:20:33.317Z,5.80
2018-01-19T23:23:00.023Z,4.93
2018-01-19T23:25:26.733Z,5.50
2018-01-19T23:27:53.669Z,5.13
2018-01-19T23:30:20.439Z,5.77
2018-01-19T23:32:47.135Z,5.83
2018-01-19T23:35:13.937Z,5.97
2018-01-19T23:37:40.636Z,5.37
2018-01-19T23:40:07.495Z,5.70
2018-01-19T23:42:34.303Z,6.00
2018-01-19T23:45:01.044Z,6.40
2018-01-19T23:47:27.841Z,5.90
2018-01-19T23:49:54.592Z,5.33
2018-01-19T23:52:21.371Z,5.00
2018-01-19T23:54:48.097Z,4.70
2018-01-19T23:57:14.858Z,5.30
2018-01-19T23:59:41.612Z,4.13
